Chicago, Illinois
Traffic Map
Current Weather Conditions
Chicago, Illinois
Overcast
Overcast
63°
Feels Like: 63°
Wind Chill: 63° Ceiling: 7500
Heat Index: 63° Visibility: 10mi
Dew Point: 47° Wind: 7mph
Humidity: 56% Direction: 180° (S)
Pressure: 29.94in Gusts: 0mph
Raw Report DataKMDW 250153Z 18006KT 10SM BKN075 BKN090 OVC250 17/08 A2994 RMK AO2 SLP138 T01720083
Traffic Incident Summary
Active as of:
Severity:
Category:
InformationThere was an issue retrieving the traffic information for this location. Please try a different location or try again shortly.
Advertisements
Track Severe Weather on mobile